createdAt,value
2018-12-10T00:00:29.882Z,100665.58
2018-12-10T00:03:07.393Z,100662.34
2018-12-10T00:05:38.971Z,100665.09
2018-12-10T00:08:10.993Z,100675.02
2018-12-10T00:10:42.241Z,100678.05
2018-12-10T00:13:13.502Z,100686.53
2018-12-10T00:18:33.922Z,100690.27
2018-12-10T00:21:06.141Z,100688.02
2018-12-10T00:23:38.261Z,100647.90
2018-12-10T00:26:09.662Z,100704.14
2018-12-10T00:28:41.747Z,100701.64
2018-12-10T00:31:13.088Z,100697.53
2018-12-10T00:33:42.981Z,100699.39
2018-12-10T00:36:15.114Z,100704.88
2018-12-10T00:38:47.226Z,100707.87
2018-12-10T00:41:18.495Z,100716.11
2018-12-10T00:43:52.488Z,100716.11
2018-12-10T00:46:26.595Z,100716.36
2018-12-10T00:48:57.925Z,100723.22
2018-12-10T00:51:29.205Z,100724.34
2018-12-10T00:54:00.633Z,100681.17
2018-12-10T00:56:35.452Z,100728.45
2018-12-10T00:59:06.658Z,100730.37
2018-12-10T01:01:37.956Z,100674.45
2018-12-10T01:04:09.170Z,100738.98
2018-12-10T01:06:41.307Z,100746.16
2018-12-10T01:09:13.293Z,100746.45
2018-12-10T01:11:45.339Z,100759.10
2018-12-10T01:14:15.463Z,100758.85
2018-12-10T01:16:46.699Z,100755.61
2018-12-10T01:19:17.942Z,100753.73
2018-12-10T01:21:49.148Z,100762.30
2018-12-10T01:24:19.257Z,100767.82
2018-12-10T01:26:53.213Z,100770.31
2018-12-10T01:29:24.434Z,100773.93
2018-12-10T01:32:09.806Z,100795.95
2018-12-10T01:34:44.596Z,100792.13
2018-12-10T01:37:15.989Z,100794.94
2018-12-10T01:39:50.691Z,100799.35
2018-12-10T01:42:24.901Z,100809.56
2018-12-10T01:44:54.339Z,100811.55
2018-12-10T01:47:24.475Z,100812.72
2018-12-10T01:49:54.488Z,100814.42
2018-12-10T01:52:25.723Z,100819.22
2018-12-10T01:54:56.894Z,100818.50
2018-12-10T01:57:28.134Z,100819.73
2018-12-10T02:00:00.180Z,100819.00
2018-12-10T02:02:31.482Z,100812.26
2018-12-10T02:05:03.022Z,100827.19
2018-12-10T02:07:35.134Z,100839.88
2018-12-10T02:10:07.031Z,100844.08
2018-12-10T02:12:38.661Z,100835.71
2018-12-10T02:15:09.875Z,100850.30
2018-12-10T02:17:40.880Z,100859.45
2018-12-10T02:20:12.079Z,100852.38
2018-12-10T02:22:44.185Z,100852.98
2018-12-10T02:25:15.401Z,100850.05
2018-12-10T02:27:46.724Z,100855.02
2018-12-10T02:30:18.718Z,100857.25
2018-12-10T02:35:51.193Z,100857.59
2018-12-10T02:38:20.725Z,100846.67
2018-12-10T02:40:49.929Z,100850.53
2018-12-10T02:43:22.127Z,100853.55
2018-12-10T02:45:53.702Z,100854.66
2018-12-10T02:48:25.809Z,100856.29
2018-12-10T02:50:57.926Z,100873.30
2018-12-10T02:53:27.936Z,100862.88
2018-12-10T02:55:59.871Z,100859.86
2018-12-10T02:58:29.507Z,100879.28
2018-12-10T03:01:00.686Z,100876.28
2018-12-10T03:03:32.988Z,100887.23
2018-12-10T03:06:04.237Z,100876.57
2018-12-10T03:08:35.468Z,100883.16
2018-12-10T03:11:06.695Z,100882.91
2018-12-10T03:13:38.104Z,100859.05
2018-12-10T03:16:10.320Z,100885.90
2018-12-10T03:18:42.461Z,100884.53
2018-12-10T03:21:12.676Z,100884.27
2018-12-10T03:23:53.875Z,100819.97
2018-12-10T03:26:25.372Z,100890.86
2018-12-10T03:28:59.330Z,100898.28
2018-12-10T03:31:30.646Z,100898.56
2018-12-10T03:34:05.309Z,100898.88
2018-12-10T03:36:36.699Z,100905.21
2018-12-10T03:39:08.752Z,100908.49
2018-12-10T03:41:40.069Z,100913.20
2018-12-10T03:44:12.196Z,100918.73
2018-12-10T03:46:44.212Z,100914.37
2018-12-10T03:49:14.164Z,100913.85
2018-12-10T03:51:46.187Z,100913.02
2018-12-10T03:54:20.264Z,100914.97
2018-12-10T03:56:51.466Z,100908.13
2018-12-10T03:59:23.668Z,100916.84
2018-12-10T04:02:18.052Z,100928.05
2018-12-10T04:04:49.470Z,100914.56
2018-12-10T04:07:21.367Z,100920.88
2018-12-10T04:09:52.594Z,100923.30
2018-12-10T04:12:23.801Z,100923.86
2018-12-10T04:14:53.923Z,100924.15
2018-12-10T04:17:25.754Z,100926.38
2018-12-10T04:19:56.957Z,100929.17
2018-12-10T04:22:28.969Z,100929.19
2018-12-10T04:25:01.139Z,100938.26
2018-12-10T04:27:33.291Z,100946.47
2018-12-10T04:30:06.011Z,100948.09
2018-12-10T04:32:40.198Z,100946.98
2018-12-10T04:35:11.501Z,100936.55
2018-12-10T04:37:46.299Z,100942.55
2018-12-10T04:40:17.728Z,100940.31
2018-12-10T04:42:49.040Z,100940.83
2018-12-10T04:45:21.155Z,100950.67
2018-12-10T04:47:53.074Z,100948.70
2018-12-10T04:50:25.179Z,100952.22
2018-12-10T04:52:56.483Z,100960.69
2018-12-10T04:55:27.666Z,100970.25
2018-12-10T04:58:01.636Z,100978.41
2018-12-10T05:00:33.007Z,100975.95
2018-12-10T05:03:04.901Z,100991.27
2018-12-10T05:05:36.338Z,100986.85
2018-12-10T05:08:08.450Z,100975.05
2018-12-10T05:10:40.501Z,100997.19
2018-12-10T05:13:15.369Z,100996.92
2018-12-10T05:16:13.786Z,100995.56
2018-12-10T05:18:48.356Z,100996.92
2018-12-10T05:21:19.699Z,100963.84
2018-12-10T05:23:50.971Z,100995.59
2018-12-10T05:26:23.078Z,101002.15
2018-12-10T05:28:57.941Z,100994.19
2018-12-10T05:31:29.363Z,101004.03
2018-12-10T05:34:01.365Z,101012.77
2018-12-10T05:36:32.563Z,101014.91
2018-12-10T05:39:14.009Z,100969.92
2018-12-10T05:41:45.543Z,101012.94
2018-12-10T05:44:17.497Z,101019.19
2018-12-10T05:46:49.489Z,101026.23
2018-12-10T05:49:19.616Z,101033.06
2018-12-10T05:51:49.001Z,101002.41
2018-12-10T05:54:21.172Z,101038.45
2018-12-10T05:56:53.074Z,101033.49
2018-12-10T05:59:27.886Z,101031.52
2018-12-10T06:02:08.646Z,101045.73
2018-12-10T06:04:40.210Z,101041.89
2018-12-10T06:07:11.446Z,101039.14
2018-12-10T06:09:41.443Z,101039.14
2018-12-10T06:12:13.461Z,101040.77
2018-12-10T06:14:58.900Z,101031.75
2018-12-10T06:17:31.305Z,101031.44
2018-12-10T06:20:05.901Z,101033.32
2018-12-10T06:22:37.841Z,101049.50
2018-12-10T06:25:11.831Z,101047.08
2018-12-10T06:27:45.834Z,101054.47
2018-12-10T06:30:17.047Z,101059.70
2018-12-10T06:32:58.473Z,101070.40
2018-12-10T06:35:30.094Z,101069.88
2018-12-10T06:38:11.417Z,101073.20
2018-12-10T06:40:42.847Z,101079.30
2018-12-10T06:43:15.029Z,101079.64
2018-12-10T06:45:56.014Z,101096.16
2018-12-10T06:48:32.318Z,101078.16
2018-12-10T06:51:15.092Z,101091.63
2018-12-10T06:53:57.712Z,101084.31
2018-12-10T06:56:29.536Z,101085.19
2018-12-10T06:59:03.524Z,101094.80
2018-12-10T07:01:34.888Z,101097.06
2018-12-10T07:04:09.719Z,101095.72
2018-12-10T07:06:41.050Z,101093.03
2018-12-10T07:09:12.290Z,101095.53
2018-12-10T07:11:44.218Z,101104.59
2018-12-10T07:14:19.094Z,101097.55
2018-12-10T07:16:54.551Z,101104.73
2018-12-10T07:19:26.273Z,101104.22
2018-12-10T07:21:58.413Z,101100.42
2018-12-10T07:24:30.566Z,101097.17
2018-12-10T07:27:00.455Z,101104.86
2018-12-10T07:29:35.385Z,101109.77
2018-12-10T07:32:06.589Z,101110.88
2018-12-10T07:34:36.603Z,101121.02
2018-12-10T07:37:07.830Z,101122.13
2018-12-10T07:39:39.936Z,101125.13
2018-12-10T07:42:11.698Z,101126.23
2018-12-10T07:44:43.934Z,101131.14
2018-12-10T07:47:15.393Z,101132.50
2018-12-10T07:49:47.531Z,101129.23
2018-12-10T07:52:19.745Z,101133.86
2018-12-10T07:54:51.910Z,101137.96
2018-12-10T07:57:23.826Z,101136.59
2018-12-10T07:59:55.970Z,101139.85
2018-12-10T08:02:27.264Z,101151.06
2018-12-10T08:04:57.391Z,101147.20
2018-12-10T08:07:29.512Z,101144.42
2018-12-10T08:09:59.972Z,101157.78
2018-12-10T08:12:31.207Z,101151.72
2018-12-10T08:15:05.271Z,101150.02
2018-12-10T08:17:37.287Z,101163.13
2018-12-10T08:20:08.585Z,101180.33
2018-12-10T08:22:38.725Z,101170.69
2018-12-10T08:25:10.534Z,101169.84
2018-12-10T08:27:44.483Z,101169.55
2018-12-10T08:30:15.739Z,101165.65
2018-12-10T08:33:09.868Z,101171.11
2018-12-10T08:35:50.541Z,101104.86
2018-12-10T08:38:21.918Z,101175.67
2018-12-10T08:41:02.943Z,101145.78
2018-12-10T08:43:34.724Z,101184.86
2018-12-10T08:46:04.737Z,101185.87
2018-12-10T08:48:36.440Z,101186.66
2018-12-10T08:51:08.682Z,101197.83
2018-12-10T08:53:40.666Z,101183.27
2018-12-10T08:56:12.682Z,101194.21
2018-12-10T08:58:44.915Z,101188.42
2018-12-10T09:01:15.046Z,101199.36
2018-12-10T09:03:47.145Z,101197.40
2018-12-10T09:06:32.599Z,101195.71
2018-12-10T09:09:05.573Z,101205.28
2018-12-10T09:11:41.571Z,101205.23
2018-12-10T09:14:12.954Z,101205.78
2018-12-10T09:16:44.969Z,101211.52
2018-12-10T09:19:17.115Z,101218.38
2018-12-10T09:21:48.452Z,101230.14
2018-12-10T09:24:22.416Z,101226.55
2018-12-10T09:26:53.619Z,101221.89
2018-12-10T09:29:29.122Z,101226.80
2018-12-10T09:32:01.233Z,101219.67
2018-12-10T09:34:32.958Z,101236.12
2018-12-10T09:37:04.285Z,101229.53
2018-12-10T09:39:56.772Z,101239.38
2018-12-10T09:42:26.577Z,101234.67
2018-12-10T09:45:07.548Z,101232.70
2018-12-10T09:47:37.367Z,101227.23
2018-12-10T09:50:10.017Z,101226.11
2018-12-10T09:52:39.731Z,101225.27
2018-12-10T09:55:10.938Z,101233.17
2018-12-10T09:57:53.128Z,101181.90
2018-12-10T10:00:24.951Z,101229.30
2018-12-10T10:02:57.086Z,101227.88
2018-12-10T10:05:28.342Z,101232.77
2018-12-10T10:07:59.570Z,101238.74
2018-12-10T10:10:31.537Z,101238.14
2018-12-10T10:13:02.863Z,101230.69
2018-12-10T10:15:32.950Z,101229.01
2018-12-10T10:18:02.927Z,101238.86
2018-12-10T10:20:34.277Z,101183.09
2018-12-10T10:23:08.840Z,101241.01
2018-12-10T10:25:49.568Z,101237.41
2018-12-10T10:28:22.499Z,101227.81
2018-12-10T10:30:56.783Z,101230.78
2018-12-10T10:33:32.268Z,101227.73
2018-12-10T10:35:59.751Z,101172.26
2018-12-10T10:38:32.007Z,101227.44
2018-12-10T10:41:05.283Z,101232.07
2018-12-10T10:43:48.160Z,101219.72
2018-12-10T10:46:16.482Z,101226.55
2018-12-10T10:48:58.720Z,101192.45
2018-12-10T10:51:30.563Z,101220.72
2018-12-10T10:54:11.601Z,101193.69
2018-12-10T10:56:53.618Z,101226.98
2018-12-10T10:59:35.146Z,101226.41
2018-12-10T11:02:15.899Z,101227.50
2018-12-10T11:04:50.439Z,101222.27
2018-12-10T11:07:21.852Z,101221.44
2018-12-10T11:09:53.291Z,101213.78
2018-12-10T11:12:38.494Z,101219.27
2018-12-10T11:15:19.252Z,101216.55
2018-12-10T11:17:53.646Z,101216.86
2018-12-10T11:20:25.078Z,101220.15
2018-12-10T11:22:59.767Z,101217.13
2018-12-10T11:25:35.430Z,101169.26
2018-12-10T11:28:06.870Z,101209.69
2018-12-10T11:30:39.014Z,101206.91
2018-12-10T11:33:10.249Z,101195.62
2018-12-10T11:35:51.599Z,101198.34
2018-12-10T11:38:23.201Z,101198.59
2018-12-10T11:40:58.087Z,101207.94
2018-12-10T11:43:29.419Z,101195.59
2018-12-10T11:46:11.584Z,101201.37
2018-12-10T11:48:41.588Z,101195.94
2018-12-10T11:51:15.696Z,101184.70
2018-12-10T11:53:45.839Z,101196.03
2018-12-10T11:56:27.039Z,101206.75
2018-12-10T11:59:01.406Z,101195.03
2018-12-10T12:01:32.712Z,101205.52
2018-12-10T12:04:13.937Z,101153.97
2018-12-10T12:06:48.071Z,101198.75
2018-12-10T12:09:20.189Z,101191.95
2018-12-10T12:12:01.423Z,101202.09
2018-12-10T12:14:32.935Z,101190.61
2018-12-10T12:17:15.255Z,101196.69
2018-12-10T12:19:50.157Z,101197.80
2018-12-10T12:22:24.546Z,101186.31
2018-12-10T12:25:05.777Z,101196.17
2018-12-10T12:27:37.302Z,101181.69
2018-12-10T12:30:08.912Z,101181.69
2018-12-10T12:32:51.651Z,101171.83
2018-12-10T12:35:23.399Z,101178.15
2018-12-10T12:38:05.521Z,101147.20
2018-12-10T12:40:40.045Z,101181.09
2018-12-10T12:43:31.950Z,101177.55
2018-12-10T12:46:01.788Z,101179.17
2018-12-10T12:48:47.259Z,101185.72
2018-12-10T12:51:18.995Z,101181.60
2018-12-10T12:56:33.996Z,101180.23
2018-12-10T12:59:17.342Z,101189.03
2018-12-10T13:01:49.243Z,101180.29
2018-12-10T13:04:33.009Z,101155.50
2018-12-10T13:07:07.421Z,101180.92
2018-12-10T13:09:41.638Z,101183.14
2018-12-10T13:12:16.506Z,101196.59
2018-12-10T13:14:50.755Z,101159.02
2018-12-10T13:17:25.430Z,101176.63
2018-12-10T13:19:56.642Z,101176.37
2018-12-10T13:22:47.074Z,101190.34
2018-12-10T13:25:16.459Z,101183.74
2018-12-10T13:27:48.074Z,101184.25
2018-12-10T13:30:20.256Z,101182.34
2018-12-10T13:32:52.268Z,101188.03
2018-12-10T13:35:26.937Z,101183.06
2018-12-10T13:38:12.465Z,101130.40
2018-12-10T13:40:42.394Z,101183.03
2018-12-10T13:43:13.020Z,101172.31
2018-12-10T13:45:47.201Z,101169.60
2018-12-10T13:48:18.450Z,101167.09
2018-12-10T13:50:50.045Z,101169.26
2018-12-10T13:53:22.073Z,101162.40
2018-12-10T13:55:54.118Z,101164.60
2018-12-10T13:58:26.138Z,101166.52
2018-12-10T14:01:01.051Z,101167.62
2018-12-10T14:03:30.497Z,101168.20
2018-12-10T14:06:02.651Z,101174.74
2018-12-10T14:08:34.848Z,101180.23
2018-12-10T14:11:04.909Z,101188.43
2018-12-10T14:13:36.152Z,101188.69
2018-12-10T14:16:08.350Z,101190.06
2018-12-10T14:18:39.590Z,101191.44
2018-12-10T14:21:12.706Z,101193.60
2018-12-10T14:23:42.854Z,101203.46
2018-12-10T14:26:15.016Z,101196.86
2018-12-10T14:28:48.787Z,101198.23
2018-12-10T14:31:20.481Z,101202.34
2018-12-10T14:33:52.606Z,101190.00
2018-12-10T14:36:24.811Z,101197.44
2018-12-10T14:38:56.549Z,101192.23
2018-12-10T14:41:27.799Z,101195.58
2018-12-10T14:43:59.010Z,101199.95
2018-12-10T14:46:29.142Z,101197.55
2018-12-10T14:48:59.251Z,101200.34
2018-12-10T14:51:31.337Z,101212.71
2018-12-10T14:54:03.605Z,101210.55
2018-12-10T14:59:07.504Z,101208.68
2018-12-10T15:01:39.519Z,101213.39
2018-12-10T15:04:09.645Z,101210.38
2018-12-10T15:06:40.882Z,101211.55
2018-12-10T15:09:12.905Z,101211.89
2018-12-10T15:11:47.946Z,101208.39
2018-12-10T15:14:22.128Z,101209.56
2018-12-10T15:16:54.426Z,101219.20
2018-12-10T15:19:28.453Z,101225.86
2018-12-10T15:22:00.776Z,101237.16
2018-12-10T15:24:30.882Z,101238.59
2018-12-10T15:27:02.299Z,101238.67
2018-12-10T15:29:33.621Z,101193.09
2018-12-10T15:32:04.815Z,101243.17
2018-12-10T15:34:36.897Z,101243.50
2018-12-10T15:37:08.128Z,101248.47
2018-12-10T15:39:39.661Z,101207.27
2018-12-10T15:42:09.662Z,101255.44
2018-12-10T15:44:41.754Z,101261.23
2018-12-10T15:47:13.722Z,101268.67
2018-12-10T15:49:45.866Z,101265.14
2018-12-10T15:52:17.873Z,101270.64
2018-12-10T15:54:52.688Z,101269.02
2018-12-10T15:57:24.187Z,101274.80
2018-12-10T15:59:58.961Z,101271.54
2018-12-10T16:02:30.484Z,101271.81
2018-12-10T16:05:02.522Z,101273.45
2018-12-10T16:07:34.792Z,101268.53
2018-12-10T16:10:08.295Z,101264.69
2018-12-10T16:12:39.838Z,101265.23
2018-12-10T16:15:11.867Z,101268.23
2018-12-10T16:17:43.920Z,101259.48
2018-12-10T16:20:16.049Z,101255.12
2018-12-10T16:22:48.184Z,101256.23
2018-12-10T16:25:22.248Z,101256.23
2018-12-10T16:27:53.854Z,101281.17
2018-12-10T16:30:26.065Z,101272.70
2018-12-10T16:32:56.087Z,101276.81
2018-12-10T16:35:28.026Z,101224.56
2018-12-10T16:37:59.272Z,101282.30
2018-12-10T16:40:31.100Z,101288.86
2018-12-10T16:43:03.242Z,101282.82
2018-12-10T16:45:34.486Z,101275.72
2018-12-10T16:48:07.796Z,101286.66
2018-12-10T16:50:39.787Z,101282.28
2018-12-10T16:53:11.694Z,101281.70
2018-12-10T16:55:43.622Z,101291.29
2018-12-10T16:58:14.871Z,101303.30
2018-12-10T17:00:47.066Z,101298.66
2018-12-10T17:03:18.544Z,101301.09
2018-12-10T17:05:48.289Z,101318.89
2018-12-10T17:08:20.423Z,101298.35
2018-12-10T17:10:55.314Z,101315.89
2018-12-10T17:13:26.749Z,101319.20
2018-12-10T17:15:56.645Z,101312.09
2018-12-10T17:18:31.569Z,101312.63
2018-12-10T17:21:05.671Z,101310.99
2018-12-10T17:23:37.046Z,101315.36
2018-12-10T17:26:13.738Z,101318.67
2018-12-10T17:28:48.902Z,101317.84
2018-12-10T17:31:20.262Z,101328.27
2018-12-10T17:33:52.772Z,101330.47
2018-12-10T17:36:24.793Z,101327.52
2018-12-10T17:39:08.563Z,101327.83
2018-12-10T17:41:42.700Z,101329.78
2018-12-10T17:44:12.183Z,101342.41
2018-12-10T17:46:43.420Z,101337.25
2018-12-10T17:49:14.635Z,101342.20
2018-12-10T17:51:44.859Z,101342.77
2018-12-10T17:54:15.512Z,101349.66
2018-12-10T17:56:49.739Z,101346.66
2018-12-10T17:59:22.102Z,101340.91
2018-12-10T18:01:56.690Z,101344.48
2018-12-10T18:04:30.826Z,101337.38
2018-12-10T18:07:02.375Z,101339.02
2018-12-10T18:09:34.348Z,101342.86
2018-12-10T18:12:05.591Z,101350.23
2018-12-10T18:14:37.715Z,101340.38
2018-12-10T18:17:08.961Z,101346.43
2018-12-10T18:19:41.021Z,101358.48
2018-12-10T18:22:12.447Z,101349.73
2018-12-10T18:24:43.905Z,101349.48
2018-12-10T18:27:15.667Z,101348.11
2018-12-10T18:29:47.978Z,101353.05
2018-12-10T18:32:26.674Z,101347.35
2018-12-10T18:34:58.176Z,101366.23
2018-12-10T18:37:32.143Z,101368.73
2018-12-10T18:40:01.555Z,101366.58
2018-12-10T18:42:32.773Z,101367.94
2018-12-10T18:45:06.607Z,101371.78
2018-12-10T18:47:36.159Z,101382.19
2018-12-10T18:50:10.287Z,101367.67
2018-12-10T18:52:41.801Z,101362.20
2018-12-10T18:55:13.792Z,101365.78
2018-12-10T18:57:45.146Z,101359.77
2018-12-10T19:00:16.499Z,101353.20
2018-12-10T19:05:18.489Z,101353.23
2018-12-10T19:07:50.342Z,101351.34
2018-12-10T19:10:22.467Z,101350.53
2018-12-10T19:12:52.808Z,101351.37
2018-12-10T19:15:24.647Z,101352.47
2018-12-10T19:17:55.918Z,101357.67
2018-12-10T19:20:27.275Z,101359.88
2018-12-10T19:22:59.339Z,101358.23
2018-12-10T19:25:31.621Z,101351.13
2018-12-10T19:28:03.558Z,101355.23
2018-12-10T19:30:35.709Z,101353.30
2018-12-10T19:33:05.320Z,101359.88
2018-12-10T19:35:46.383Z,101361.50
2018-12-10T19:38:27.948Z,101357.67
2018-12-10T19:41:10.568Z,101309.74
2018-12-10T19:43:51.501Z,101357.91
2018-12-10T19:46:32.139Z,101290.08
2018-12-10T19:49:00.482Z,101361.41
2018-12-10T19:51:41.441Z,101361.41
2018-12-10T19:54:09.840Z,101367.67
2018-12-10T19:56:50.572Z,101361.38
2018-12-10T19:59:24.716Z,101372.02
2018-12-10T20:02:00.122Z,101366.27
2018-12-10T20:04:40.991Z,101365.70
2018-12-10T20:07:22.148Z,101361.03
2018-12-10T20:09:56.443Z,101372.24
2018-12-10T20:12:39.931Z,101371.97
2018-12-10T20:15:11.274Z,101375.78
2018-12-10T20:18:09.393Z,101321.86
2018-12-10T20:20:43.679Z,101368.37
2018-12-10T20:23:15.285Z,101376.84
2018-12-10T20:25:58.253Z,101384.21
2018-12-10T20:28:39.867Z,101386.15
2018-12-10T20:31:20.736Z,101389.42
2018-12-10T20:34:01.662Z,101372.24
2018-12-10T20:36:44.215Z,101384.20
2018-12-10T20:39:15.552Z,101379.27
2018-12-10T20:41:47.688Z,101386.37
2018-12-10T20:44:28.809Z,101385.27
2018-12-10T20:47:00.661Z,101390.74
2018-12-10T20:49:32.635Z,101386.64
2018-12-10T20:52:24.526Z,101395.95
2018-12-10T20:54:55.775Z,101392.11
2018-12-10T20:57:25.605Z,101396.48
2018-12-10T20:59:59.575Z,101389.64
2018-12-10T21:02:47.614Z,101392.08
2018-12-10T21:05:20.586Z,101388.50
2018-12-10T21:08:05.121Z,101387.97
2018-12-10T21:10:35.059Z,101390.14
2018-12-10T21:13:16.337Z,101389.87
2018-12-10T21:15:47.807Z,101385.50
2018-12-10T21:18:19.060Z,101382.77
2018-12-10T21:20:51.095Z,101383.03
2018-12-10T21:23:22.435Z,101377.59
2018-12-10T21:25:54.272Z,101378.97
2018-12-10T21:28:26.448Z,101391.31
2018-12-10T21:30:58.591Z,101386.37
2018-12-10T21:33:28.414Z,101388.88
2018-12-10T21:36:10.738Z,101389.16
2018-12-10T21:38:45.578Z,101380.95
2018-12-10T21:41:16.235Z,101388.35
2018-12-10T21:43:50.302Z,101386.16
2018-12-10T21:46:21.730Z,101391.05
2018-12-10T21:48:53.609Z,101390.25
2018-12-10T21:51:25.783Z,101389.11
2018-12-10T21:53:57.724Z,101392.15
2018-12-10T21:56:38.955Z,101403.63
2018-12-10T21:59:13.270Z,101398.42
2018-12-10T22:01:48.188Z,101401.42
2018-12-10T22:04:19.511Z,101405.80
2018-12-10T22:06:51.647Z,101402.22
2018-12-10T22:09:23.683Z,101393.75
2018-12-10T22:11:58.584Z,101397.59
2018-12-10T22:14:30.785Z,101395.65
2018-12-10T22:20:12.152Z,101386.07
2018-12-10T22:22:43.567Z,101390.71
2018-12-10T22:25:15.661Z,101397.28
2018-12-10T22:27:49.939Z,101386.34
2018-12-10T22:30:21.314Z,101391.27
2018-12-10T22:32:53.438Z,101396.75
2018-12-10T22:35:28.411Z,101390.17
2018-12-10T22:38:02.470Z,101385.50
2018-12-10T22:40:37.437Z,101389.87
2018-12-10T22:43:08.781Z,101389.07
2018-12-10T22:45:39.988Z,101388.50
2018-12-10T22:48:14.714Z,101391.54
2018-12-10T22:50:56.181Z,101378.39
2018-12-10T22:53:37.066Z,101381.43
2018-12-10T22:56:08.670Z,101376.80
2018-12-10T22:58:40.841Z,101384.73
2018-12-10T23:01:17.573Z,101389.68
2018-12-10T23:03:49.115Z,101394.89
2018-12-10T23:06:20.385Z,101386.95
2018-12-10T23:09:11.620Z,101392.69
2018-12-10T23:11:43.582Z,101394.09
2018-12-10T23:14:14.831Z,101393.26
2018-12-10T23:16:46.933Z,101397.66
2018-12-10T23:19:17.006Z,101396.56
2018-12-10T23:25:07.138Z,101400.97
2018-12-10T23:27:47.873Z,101408.64
2018-12-10T23:30:22.477Z,101413.84
2018-12-10T23:33:09.696Z,101409.47
2018-12-10T23:35:46.281Z,101412.21
2018-12-10T23:38:27.298Z,101412.51
2018-12-10T23:41:01.484Z,101412.51
2018-12-10T23:46:42.342Z,101407.58
2018-12-10T23:49:37.019Z,101410.04
2018-12-10T23:52:08.678Z,101405.64
2018-12-10T23:54:50.245Z,101408.11
2018-12-10T23:57:21.691Z,101403.70
2018-12-10T23:59:56.417Z,101411.08
